createdAt,value
2023-02-27T00:02:18.330Z,102390.63
2023-02-27T00:04:47.680Z,102390.03
2023-02-27T00:07:17.751Z,102391.09
2023-02-27T00:09:46.746Z,102394.56
2023-02-27T00:12:13.791Z,102401.88
2023-02-27T00:14:40.937Z,102406.00
2023-02-27T00:17:08.096Z,102400.47
2023-02-27T00:19:35.007Z,102405.16
2023-02-27T00:22:02.062Z,102412.06
2023-02-27T00:24:29.179Z,102407.13
2023-02-27T00:27:01.237Z,102401.25
2023-02-27T00:29:33.243Z,102403.63
2023-02-27T00:32:00.506Z,102402.13
2023-02-27T00:34:27.540Z,102403.28
2023-02-27T00:36:57.085Z,102410.47
2023-02-27T00:39:26.673Z,102413.66
2023-02-27T00:41:53.845Z,102411.84
2023-02-27T00:44:20.860Z,102420.09
2023-02-27T00:46:47.950Z,102415.56
2023-02-27T00:49:15.187Z,102412.50
2023-02-27T00:51:42.235Z,102415.56
2023-02-27T00:54:09.751Z,102421.69
2023-02-27T00:56:36.917Z,102421.94
2023-02-27T00:59:04.360Z,102410.81
2023-02-27T01:01:33.782Z,102418.63
2023-02-27T01:04:03.135Z,102413.22
2023-02-27T01:06:30.088Z,102418.97
2023-02-27T01:08:57.053Z,102415.13
2023-02-27T01:11:26.774Z,102417.88
2023-02-27T01:13:53.900Z,102411.59
2023-02-27T01:16:23.617Z,102414.88
2023-02-27T01:18:50.727Z,102411.41
2023-02-27T01:21:17.843Z,102416.94
2023-02-27T01:23:44.937Z,102406.59
2023-02-27T01:26:12.152Z,102407.81
2023-02-27T01:28:39.317Z,102405.19
2023-02-27T01:31:09.324Z,102410.34
2023-02-27T01:33:38.519Z,102401.06
2023-02-27T01:36:05.983Z,102399.28
2023-02-27T01:38:32.860Z,102391.31
2023-02-27T01:41:02.874Z,102392.03
2023-02-27T01:43:32.464Z,102384.97
2023-02-27T01:46:04.555Z,102392.31
2023-02-27T01:48:36.046Z,102386.97
2023-02-27T01:51:13.152Z,102390.69
2023-02-27T01:53:42.002Z,102387.47
2023-02-27T01:56:34.880Z,102384.09
2023-02-27T01:59:06.862Z,102376.34
2023-02-27T02:01:35.687Z,102386.75
2023-02-27T02:04:28.018Z,102390.84
2023-02-27T02:07:02.732Z,102390.72
2023-02-27T02:09:31.183Z,102391.16
2023-02-27T02:11:59.660Z,102391.84
2023-02-27T02:14:29.082Z,102387.25
2023-02-27T02:17:30.529Z,102382.59
2023-02-27T02:20:35.661Z,102384.34
2023-02-27T02:23:36.995Z,102378.19
2023-02-27T02:26:37.112Z,102389.41
2023-02-27T02:29:43.993Z,102384.22
2023-02-27T02:32:31.054Z,102395.44
2023-02-27T02:35:16.817Z,102391.84
2023-02-27T02:38:17.563Z,102387.13
2023-02-27T02:41:24.145Z,102396.19
2023-02-27T02:44:27.486Z,102401.38
2023-02-27T02:47:32.409Z,102400.13
2023-02-27T02:50:24.797Z,102405.34
2023-02-27T02:53:19.207Z,102402.88
2023-02-27T02:55:53.627Z,102405.22
2023-02-27T02:58:29.874Z,102406.34
2023-02-27T03:01:13.569Z,102410.75
2023-02-27T03:04:14.634Z,102416.72
2023-02-27T03:06:49.096Z,102408.56
2023-02-27T03:09:33.548Z,102407.94
2023-02-27T03:12:13.624Z,102407.94
2023-02-27T03:14:49.903Z,102408.03
2023-02-27T03:17:48.807Z,102414.94
2023-02-27T03:20:34.588Z,102420.31
2023-02-27T03:23:12.392Z,102415.31
2023-02-27T03:25:44.078Z,102428.91
2023-02-27T03:28:23.678Z,102417.31
2023-02-27T03:31:01.599Z,102427.84
2023-02-27T03:33:36.637Z,102419.81
2023-02-27T03:36:27.677Z,102428.03
2023-02-27T03:39:14.098Z,102433.03
2023-02-27T03:42:15.735Z,102430.06
2023-02-27T03:45:31.854Z,102437.41
2023-02-27T03:47:59.854Z,102438.75
2023-02-27T03:50:27.254Z,102441.34
2023-02-27T03:52:54.574Z,102432.16
2023-02-27T03:55:32.743Z,102436.88
2023-02-27T03:58:00.871Z,102437.34
2023-02-27T04:00:29.070Z,102444.34
2023-02-27T04:03:02.673Z,102447.31
2023-02-27T04:05:30.131Z,102456.22
2023-02-27T04:08:43.597Z,102453.69
2023-02-27T04:12:04.601Z,102449.88
2023-02-27T04:14:47.226Z,102444.88
2023-02-27T04:17:15.136Z,102443.38
2023-02-27T04:20:05.132Z,102448.19
2023-02-27T04:23:10.375Z,102454.28
2023-02-27T04:26:15.500Z,102449.75
2023-02-27T04:29:04.276Z,102458.66
2023-02-27T04:31:47.297Z,102455.13
2023-02-27T04:34:44.056Z,102459.88
2023-02-27T04:37:42.465Z,102458.78
2023-02-27T04:40:16.923Z,102465.75
2023-02-27T04:42:55.132Z,102468.69
2023-02-27T04:45:25.792Z,102469.31
2023-02-27T04:48:03.591Z,102468.47
2023-02-27T04:50:41.814Z,102473.78
2023-02-27T04:53:27.328Z,102475.09
2023-02-27T04:56:04.704Z,102480.25
2023-02-27T04:58:46.613Z,102485.53
2023-02-27T05:01:31.659Z,102497.16
2023-02-27T05:04:00.591Z,102495.66
2023-02-27T05:06:40.732Z,102492.38
2023-02-27T05:09:35.536Z,102493.13
2023-02-27T05:12:23.164Z,102491.03
2023-02-27T05:15:00.193Z,102485.41
2023-02-27T05:18:03.373Z,102489.56
2023-02-27T05:21:15.278Z,102491.56
2023-02-27T05:23:59.921Z,102493.00
2023-02-27T05:27:20.896Z,102498.63
2023-02-27T05:29:53.521Z,102504.56
2023-02-27T05:32:48.964Z,102497.91
2023-02-27T05:35:46.577Z,102498.66
2023-02-27T05:38:27.410Z,102499.94
2023-02-27T05:41:03.988Z,102500.63
2023-02-27T05:43:41.532Z,102504.06
2023-02-27T05:46:19.422Z,102507.16
2023-02-27T05:49:20.548Z,102513.69
2023-02-27T05:51:54.914Z,102508.19
2023-02-27T05:54:43.425Z,102513.25
2023-02-27T05:57:18.118Z,102516.72
2023-02-27T05:59:57.486Z,102514.78
2023-02-27T06:02:27.104Z,102517.16
2023-02-27T06:04:55.339Z,102529.63
2023-02-27T06:07:23.283Z,102518.69
2023-02-27T06:09:51.609Z,102514.06
2023-02-27T06:12:19.361Z,102521.88
2023-02-27T06:14:48.784Z,102522.91
2023-02-27T06:17:15.776Z,102524.66
2023-02-27T06:19:42.837Z,102523.78
2023-02-27T06:22:11.321Z,102523.94
2023-02-27T06:24:38.405Z,102525.63
2023-02-27T06:27:05.325Z,102541.09
2023-02-27T06:29:32.272Z,102540.56
2023-02-27T06:32:01.714Z,102538.59
2023-02-27T06:34:28.933Z,102544.91
2023-02-27T06:36:55.879Z,102535.97
2023-02-27T06:39:22.960Z,102535.22
2023-02-27T06:41:52.473Z,102528.31
2023-02-27T06:44:21.973Z,102527.97
2023-02-27T06:46:48.910Z,102535.19
2023-02-27T06:49:15.825Z,102534.94
2023-02-27T06:51:44.926Z,102537.84
2023-02-27T06:54:11.983Z,102536.78
2023-02-27T06:56:38.876Z,102529.31
2023-02-27T06:59:05.949Z,102529.66
2023-02-27T07:01:32.855Z,102533.47
2023-02-27T07:04:01.143Z,102525.84
2023-02-27T07:06:31.998Z,102541.47
2023-02-27T07:09:15.270Z,102543.88
2023-02-27T07:11:42.293Z,102544.66
2023-02-27T07:14:09.237Z,102546.13
2023-02-27T07:16:38.740Z,102557.00
2023-02-27T07:19:07.448Z,102553.31
2023-02-27T07:21:38.717Z,102549.94
2023-02-27T07:24:05.852Z,102564.66
2023-02-27T07:26:32.833Z,102563.78
2023-02-27T07:29:00.500Z,102568.25
2023-02-27T07:31:28.967Z,102585.06
2023-02-27T07:33:56.145Z,102589.84
2023-02-27T07:36:23.791Z,102594.19
2023-02-27T07:38:53.436Z,102594.56
2023-02-27T07:41:30.024Z,102601.66
2023-02-27T07:43:58.132Z,102593.25
2023-02-27T07:46:28.176Z,102586.09
2023-02-27T07:48:55.415Z,102581.03
2023-02-27T07:51:22.555Z,102591.13
2023-02-27T07:53:49.474Z,102590.59
2023-02-27T07:56:16.455Z,102590.31
2023-02-27T07:58:46.422Z,102589.59
2023-02-27T08:01:13.559Z,102597.25
2023-02-27T08:03:40.499Z,102597.56
2023-02-27T08:06:12.146Z,102596.84
2023-02-27T08:08:39.510Z,102592.41
2023-02-27T08:11:08.478Z,102594.50
2023-02-27T08:16:24.437Z,102600.59
2023-02-27T08:18:51.452Z,102593.81
2023-02-27T08:21:25.623Z,102604.88
2023-02-27T08:23:53.024Z,102598.66
2023-02-27T08:26:20.195Z,102601.63
2023-02-27T08:28:49.678Z,102611.56
2023-02-27T08:31:20.143Z,102614.22
2023-02-27T08:33:49.497Z,102612.22
2023-02-27T08:36:16.954Z,102613.59
2023-02-27T08:38:43.912Z,102614.88
2023-02-27T08:41:10.836Z,102622.38
2023-02-27T08:43:40.254Z,102619.09
2023-02-27T08:46:07.309Z,102614.09
2023-02-27T08:48:34.278Z,102613.50
2023-02-27T08:51:04.075Z,102615.53
2023-02-27T08:53:33.992Z,102614.00
2023-02-27T08:56:00.883Z,102608.69
2023-02-27T08:58:30.930Z,102602.63
2023-02-27T09:00:57.876Z,102607.19
2023-02-27T09:03:28.831Z,102599.03
2023-02-27T09:05:56.819Z,102598.00
2023-02-27T09:08:24.393Z,102607.75
2023-02-27T09:10:51.409Z,102606.16
2023-02-27T09:13:22.084Z,102607.47
2023-02-27T09:15:49.048Z,102608.63
2023-02-27T09:18:16.239Z,102612.34
2023-02-27T09:20:43.174Z,102608.81
2023-02-27T09:23:15.051Z,102610.72
2023-02-27T09:25:42.440Z,102620.34
2023-02-27T09:28:09.323Z,102628.88
2023-02-27T09:30:38.858Z,102632.16
2023-02-27T09:33:05.815Z,102635.72
2023-02-27T09:35:38.272Z,102636.25
2023-02-27T09:38:05.611Z,102631.94
2023-02-27T09:40:42.227Z,102630.41
2023-02-27T09:43:22.053Z,102634.50
2023-02-27T09:45:56.111Z,102634.13
2023-02-27T09:48:54.959Z,102635.25
2023-02-27T09:51:22.985Z,102629.03
2023-02-27T09:53:54.843Z,102627.91
2023-02-27T09:56:49.167Z,102634.28
2023-02-27T09:59:40.069Z,102631.78
2023-02-27T10:02:44.762Z,102625.00
2023-02-27T10:05:42.463Z,102629.19
2023-02-27T10:08:22.698Z,102631.19
2023-02-27T10:11:00.297Z,102638.50
2023-02-27T10:13:53.679Z,102646.41
2023-02-27T10:16:24.942Z,102632.72
2023-02-27T10:18:59.502Z,102624.84
2023-02-27T10:21:43.052Z,102635.13
2023-02-27T10:24:29.480Z,102632.09
2023-02-27T10:26:59.573Z,102636.13
2023-02-27T10:29:43.814Z,102631.66
2023-02-27T10:32:25.331Z,102640.66
2023-02-27T10:34:57.099Z,102650.72
2023-02-27T10:37:28.716Z,102646.13
2023-02-27T10:40:06.811Z,102643.78
2023-02-27T10:42:41.522Z,102643.00
2023-02-27T10:45:17.439Z,102641.19
2023-02-27T10:47:48.986Z,102646.91
2023-02-27T10:50:29.898Z,102644.44
2023-02-27T10:53:03.536Z,102645.38
2023-02-27T10:55:36.275Z,102644.00
2023-02-27T10:58:05.049Z,102654.44
2023-02-27T11:00:45.585Z,102652.50
2023-02-27T11:03:43.458Z,102657.19
2023-02-27T11:06:25.953Z,102643.59
2023-02-27T11:09:24.413Z,102656.78
2023-02-27T11:11:55.469Z,102645.81
2023-02-27T11:14:33.960Z,102640.13
2023-02-27T11:17:03.897Z,102653.22
2023-02-27T11:19:38.577Z,102643.59
2023-02-27T11:22:17.587Z,102646.44
2023-02-27T11:24:47.639Z,102649.81
2023-02-27T11:27:30.276Z,102656.72
2023-02-27T11:30:06.813Z,102655.84
2023-02-27T11:32:51.975Z,102656.38
2023-02-27T11:35:39.763Z,102647.97
2023-02-27T11:38:26.947Z,102650.09
2023-02-27T11:41:04.708Z,102655.59
2023-02-27T11:43:41.778Z,102654.56
2023-02-27T11:46:30.089Z,102650.75
2023-02-27T11:49:06.690Z,102643.28
2023-02-27T11:51:56.531Z,102645.41
2023-02-27T11:54:56.370Z,102641.47
2023-02-27T11:57:40.121Z,102634.25
2023-02-27T12:00:34.485Z,102639.97
2023-02-27T12:03:10.937Z,102629.28
2023-02-27T12:05:52.133Z,102652.06
2023-02-27T12:08:30.935Z,102635.97
2023-02-27T12:11:13.658Z,102635.41
2023-02-27T12:13:47.265Z,102640.00
2023-02-27T12:16:32.956Z,102650.59
2023-02-27T12:19:30.307Z,102635.66
2023-02-27T12:22:13.681Z,102645.03
2023-02-27T12:25:12.652Z,102649.16
2023-02-27T12:28:05.286Z,102636.00
2023-02-27T12:31:03.430Z,102632.06
2023-02-27T12:34:14.967Z,102638.97
2023-02-27T12:36:41.877Z,102624.34
2023-02-27T12:39:20.117Z,102634.66
2023-02-27T12:42:21.086Z,102631.38
2023-02-27T12:45:34.197Z,102627.97
2023-02-27T12:48:24.126Z,102629.59
2023-02-27T12:51:08.046Z,102628.47
2023-02-27T12:54:12.979Z,102620.25
2023-02-27T12:56:59.261Z,102619.06
2023-02-27T12:59:38.217Z,102619.56
2023-02-27T13:02:32.816Z,102611.72
2023-02-27T13:05:32.311Z,102621.34
2023-02-27T13:08:21.383Z,102620.03
2023-02-27T13:11:27.314Z,102617.31
2023-02-27T13:14:05.660Z,102613.34
2023-02-27T13:16:46.706Z,102617.16
2023-02-27T13:19:22.951Z,102612.81
2023-02-27T13:21:55.772Z,102618.41
2023-02-27T13:24:27.036Z,102608.84
2023-02-27T13:26:57.936Z,102615.41
2023-02-27T13:29:47.651Z,102611.94
2023-02-27T13:32:51.562Z,102617.25
2023-02-27T13:35:56.248Z,102617.66
2023-02-27T13:38:58.096Z,102613.84
2023-02-27T13:41:24.972Z,102615.72
2023-02-27T13:43:56.967Z,102622.13
2023-02-27T13:46:29.793Z,102617.63
2023-02-27T13:49:05.936Z,102610.47
2023-02-27T13:51:36.006Z,102604.34
2023-02-27T13:54:21.716Z,102605.91
2023-02-27T13:56:54.803Z,102612.38
2023-02-27T13:59:30.604Z,102619.72
2023-02-27T14:02:07.119Z,102619.47
2023-02-27T14:04:39.547Z,102612.66
2023-02-27T14:07:24.026Z,102616.44
2023-02-27T14:10:05.585Z,102610.75
2023-02-27T14:12:45.822Z,102607.78
2023-02-27T14:15:22.127Z,102606.09
2023-02-27T14:18:12.362Z,102601.22
2023-02-27T14:20:45.068Z,102593.59
2023-02-27T14:23:22.359Z,102598.91
2023-02-27T14:26:20.510Z,102599.81
2023-02-27T14:28:56.411Z,102610.22
2023-02-27T14:31:31.336Z,102609.06
2023-02-27T14:34:05.206Z,102608.50
2023-02-27T14:36:50.131Z,102601.31
2023-02-27T14:39:28.401Z,102604.75
2023-02-27T14:42:16.921Z,102606.75
2023-02-27T14:44:47.768Z,102604.03
2023-02-27T14:47:40.622Z,102610.56
2023-02-27T14:50:37.302Z,102607.97
2023-02-27T14:53:06.034Z,102608.13
2023-02-27T14:55:41.522Z,102604.91
2023-02-27T14:58:14.433Z,102612.56
2023-02-27T15:00:42.696Z,102608.84
2023-02-27T15:03:27.295Z,102603.19
2023-02-27T15:05:59.625Z,102619.28
2023-02-27T15:08:34.587Z,102612.81
2023-02-27T15:11:02.436Z,102620.63
2023-02-27T15:13:39.611Z,102613.28
2023-02-27T15:16:24.444Z,102610.56
2023-02-27T15:18:59.576Z,102609.84
2023-02-27T15:21:37.777Z,102608.06
2023-02-27T15:24:09.073Z,102615.94
2023-02-27T15:26:39.950Z,102612.47
2023-02-27T15:29:08.613Z,102615.69
2023-02-27T15:31:36.054Z,102619.03
2023-02-27T15:34:11.122Z,102613.19
2023-02-27T15:36:39.329Z,102610.16
2023-02-27T15:39:18.978Z,102608.59
2023-02-27T15:42:01.932Z,102615.22
2023-02-27T15:44:44.703Z,102625.34
2023-02-27T15:47:21.593Z,102614.66
2023-02-27T15:49:54.817Z,102621.16
2023-02-27T15:52:25.027Z,102631.00
2023-02-27T15:55:07.204Z,102624.88
2023-02-27T15:57:34.300Z,102623.59
2023-02-27T16:00:06.381Z,102635.25
2023-02-27T16:02:52.777Z,102627.19
2023-02-27T16:05:27.083Z,102630.22
2023-02-27T16:07:56.784Z,102625.06
2023-02-27T16:10:35.443Z,102626.69
2023-02-27T16:13:34.778Z,102631.78
2023-02-27T16:16:22.041Z,102628.81
2023-02-27T16:18:58.775Z,102629.72
2023-02-27T16:21:33.795Z,102632.19
2023-02-27T16:24:21.191Z,102637.59
2023-02-27T16:26:54.954Z,102638.53
2023-02-27T16:29:35.025Z,102634.56
2023-02-27T16:32:04.653Z,102643.31
2023-02-27T16:34:45.380Z,102636.50
2023-02-27T16:37:43.517Z,102642.16
2023-02-27T16:40:15.838Z,102644.38
2023-02-27T16:42:47.167Z,102638.38
2023-02-27T16:45:24.689Z,102640.16
2023-02-27T16:47:56.732Z,102642.09
2023-02-27T16:50:41.042Z,102646.97
2023-02-27T16:53:10.593Z,102639.53
2023-02-27T16:55:40.990Z,102636.94
2023-02-27T16:58:12.782Z,102637.72
2023-02-27T17:00:42.792Z,102644.22
2023-02-27T17:03:12.242Z,102634.78
2023-02-27T17:05:39.183Z,102635.88
2023-02-27T17:08:06.088Z,102638.69
2023-02-27T17:10:36.114Z,102638.91
2023-02-27T17:13:03.216Z,102635.41
2023-02-27T17:15:30.174Z,102640.63
2023-02-27T17:17:57.161Z,102648.84
2023-02-27T17:20:26.177Z,102646.44
2023-02-27T17:22:53.222Z,102650.13
2023-02-27T17:25:20.310Z,102649.69
2023-02-27T17:27:47.534Z,102647.63
2023-02-27T17:30:15.001Z,102653.03
2023-02-27T17:32:41.922Z,102651.78
2023-02-27T17:35:09.460Z,102651.78
2023-02-27T17:37:37.828Z,102652.84
2023-02-27T17:40:08.274Z,102654.00
2023-02-27T17:42:41.922Z,102656.00
2023-02-27T17:45:10.515Z,102656.44
2023-02-27T17:47:37.524Z,102664.72
2023-02-27T17:50:06.271Z,102658.09
2023-02-27T17:52:37.960Z,102657.09
2023-02-27T17:55:06.476Z,102661.47
2023-02-27T17:57:38.882Z,102662.03
2023-02-27T18:00:10.546Z,102658.38
2023-02-27T18:02:37.480Z,102652.22
2023-02-27T18:05:07.616Z,102653.47
2023-02-27T18:07:34.695Z,102647.03
2023-02-27T18:10:02.595Z,102642.72
2023-02-27T18:12:32.037Z,102652.59
2023-02-27T18:14:58.915Z,102654.44
2023-02-27T18:17:25.899Z,102651.19
2023-02-27T18:19:52.815Z,102650.88
2023-02-27T18:22:24.237Z,102646.66
2023-02-27T18:24:58.702Z,102650.31
2023-02-27T18:27:26.731Z,102648.56
2023-02-27T18:29:53.940Z,102663.19
2023-02-27T18:32:21.111Z,102666.75
2023-02-27T18:34:48.016Z,102668.44
2023-02-27T18:37:17.224Z,102666.56
2023-02-27T18:39:44.197Z,102664.41
2023-02-27T18:42:11.148Z,102675.59
2023-02-27T18:44:40.677Z,102678.88
2023-02-27T18:47:08.057Z,102668.66
2023-02-27T18:49:35.073Z,102683.06
2023-02-27T18:52:04.220Z,102692.41
2023-02-27T18:54:33.572Z,102693.47
2023-02-27T18:57:06.064Z,102695.38
2023-02-27T18:59:33.085Z,102698.66
2023-02-27T19:02:02.228Z,102696.88
2023-02-27T19:04:33.453Z,102704.03
2023-02-27T19:07:02.596Z,102700.41
2023-02-27T19:09:32.782Z,102703.69
2023-02-27T19:12:00.734Z,102705.06
2023-02-27T19:14:32.321Z,102699.59
2023-02-27T19:17:00.439Z,102701.94
2023-02-27T19:19:30.012Z,102696.03
2023-02-27T19:21:57.138Z,102707.56
2023-02-27T19:24:24.388Z,102702.97
2023-02-27T19:26:54.187Z,102710.50
2023-02-27T19:29:26.330Z,102704.28
2023-02-27T19:31:53.336Z,102714.41
2023-02-27T19:34:20.488Z,102713.66
2023-02-27T19:36:49.766Z,102722.34
2023-02-27T19:39:19.443Z,102714.66
2023-02-27T19:41:48.629Z,102712.84
2023-02-27T19:44:18.426Z,102716.94
2023-02-27T19:46:51.416Z,102719.81
2023-02-27T19:49:19.744Z,102712.09
2023-02-27T19:51:46.771Z,102712.81
2023-02-27T19:54:15.848Z,102716.22
2023-02-27T19:56:43.311Z,102723.94
2023-02-27T19:59:12.447Z,102711.19
2023-02-27T20:01:42.117Z,102712.66
2023-02-27T20:04:11.059Z,102716.97
2023-02-27T20:06:45.790Z,102716.34
2023-02-27T20:09:20.381Z,102709.28
2023-02-27T20:12:01.404Z,102710.38
2023-02-27T20:14:29.436Z,102719.06
2023-02-27T20:17:01.101Z,102715.25
2023-02-27T20:19:30.498Z,102719.19
2023-02-27T20:21:57.682Z,102719.84
2023-02-27T20:24:25.350Z,102721.09
2023-02-27T20:26:53.980Z,102724.41
2023-02-27T20:29:24.051Z,102721.72
2023-02-27T20:31:57.372Z,102714.59
2023-02-27T20:34:26.416Z,102717.56
2023-02-27T20:36:55.334Z,102718.16
2023-02-27T20:39:25.265Z,102705.41
2023-02-27T20:41:52.926Z,102716.44
2023-02-27T20:44:19.956Z,102715.53
2023-02-27T20:46:49.321Z,102714.25
2023-02-27T20:49:17.054Z,102703.97
2023-02-27T20:51:44.873Z,102716.13
2023-02-27T20:54:16.712Z,102713.66
2023-02-27T20:56:47.516Z,102719.31
2023-02-27T20:59:20.814Z,102719.47
2023-02-27T21:01:52.107Z,102717.09
2023-02-27T21:04:23.995Z,102727.81
2023-02-27T21:06:52.171Z,102730.66
2023-02-27T21:09:19.791Z,102731.09
2023-02-27T21:11:46.723Z,102729.00
2023-02-27T21:14:14.505Z,102728.56
2023-02-27T21:16:41.524Z,102728.19
2023-02-27T21:19:11.045Z,102732.97
2023-02-27T21:21:38.010Z,102729.06
2023-02-27T21:24:06.073Z,102730.50
2023-02-27T21:26:41.420Z,102730.50
2023-02-27T21:29:12.982Z,102726.31
2023-02-27T21:31:42.188Z,102733.47
2023-02-27T21:34:13.814Z,102736.97
2023-02-27T21:36:47.334Z,102733.84
2023-02-27T21:39:21.775Z,102744.56
2023-02-27T21:41:49.468Z,102736.94
2023-02-27T21:44:20.552Z,102732.91
2023-02-27T21:46:48.121Z,102739.06
2023-02-27T21:49:25.423Z,102743.91
2023-02-27T21:51:55.275Z,102736.25
2023-02-27T21:54:22.958Z,102738.75
2023-02-27T21:56:50.454Z,102738.13
2023-02-27T21:59:20.161Z,102735.88
2023-02-27T22:01:49.683Z,102741.47
2023-02-27T22:04:21.756Z,102748.03
2023-02-27T22:06:50.708Z,102746.78
2023-02-27T22:09:18.728Z,102740.84
2023-02-27T22:11:48.765Z,102740.53
2023-02-27T22:14:21.264Z,102738.91
2023-02-27T22:16:48.491Z,102734.09
2023-02-27T22:19:19.876Z,102748.41
2023-02-27T22:21:47.641Z,102734.38
2023-02-27T22:24:17.167Z,102734.38
2023-02-27T22:26:45.806Z,102728.47
2023-02-27T22:29:13.102Z,102737.44
2023-02-27T22:31:42.226Z,102733.34
2023-02-27T22:34:18.486Z,102734.03
2023-02-27T22:36:48.721Z,102727.50
2023-02-27T22:39:16.326Z,102731.88
2023-02-27T22:41:46.008Z,102732.59
2023-02-27T22:44:15.917Z,102734.09
2023-02-27T22:46:47.520Z,102733.97
2023-02-27T22:49:21.833Z,102733.69
2023-02-27T22:51:52.035Z,102731.03
2023-02-27T22:54:22.442Z,102739.06
2023-02-27T22:56:52.653Z,102740.50
2023-02-27T22:59:20.562Z,102744.91
2023-02-27T23:01:51.408Z,102742.50
2023-02-27T23:04:23.366Z,102737.94
2023-02-27T23:06:52.664Z,102742.44
2023-02-27T23:09:24.153Z,102748.72
2023-02-27T23:11:51.964Z,102748.91
2023-02-27T23:14:19.918Z,102748.91
2023-02-27T23:16:48.270Z,102754.25
2023-02-27T23:19:19.593Z,102757.44
2023-02-27T23:21:49.088Z,102758.53
2023-02-27T23:24:19.726Z,102755.94
2023-02-27T23:26:51.320Z,102751.59
2023-02-27T23:29:23.379Z,102754.44
2023-02-27T23:31:50.674Z,102769.78
2023-02-27T23:34:18.215Z,102760.91
2023-02-27T23:36:49.897Z,102767.19
2023-02-27T23:39:19.628Z,102772.03
2023-02-27T23:41:47.108Z,102772.47
2023-02-27T23:44:33.030Z,102766.91
2023-02-27T23:47:01.332Z,102768.16
2023-02-27T23:49:35.492Z,102769.91
2023-02-27T23:52:03.418Z,102770.91
2023-02-27T23:54:30.488Z,102769.78
2023-02-27T23:56:57.441Z,102772.91
2023-02-27T23:59:28.946Z,102762.69
